createdAt,value
2023-04-02T00:09:27.926Z,51.156075
2023-04-02T00:22:14.842Z,51.156143
2023-04-02T00:23:13.568Z,51.156143
2023-04-02T00:24:13.819Z,51.156143
2023-04-02T00:25:13.293Z,51.156143
2023-04-02T00:26:14.195Z,51.156147
2023-04-02T00:27:14.676Z,51.156128
2023-04-02T00:28:13.324Z,51.156178
2023-04-02T00:29:14.118Z,51.156120
2023-04-02T00:30:13.492Z,51.156109
2023-04-02T00:31:13.270Z,51.156113
2023-04-02T00:32:13.885Z,51.156113
2023-04-02T00:33:15.266Z,51.156174
2023-04-02T00:34:15.029Z,51.156120
2023-04-02T00:35:13.582Z,51.156113
2023-04-02T00:46:06.047Z,51.156101
2023-04-02T00:47:03.548Z,51.156044
2023-04-02T00:48:02.584Z,51.156040
2023-04-02T00:59:09.879Z,51.156094
2023-04-02T00:59:35.264Z,51.156105
2023-04-02T01:01:08.462Z,51.156071
2023-04-02T01:01:33.918Z,51.156055
2023-04-02T01:03:05.721Z,51.156075
2023-04-02T01:03:33.347Z,51.156090
2023-04-02T01:34:15.529Z,51.156136
2023-04-02T01:45:31.500Z,51.156002
2023-04-02T02:04:15.015Z,51.156147
2023-04-02T02:09:32.744Z,51.156078
2023-04-02T02:09:56.961Z,51.156143
2023-04-02T03:42:45.276Z,51.156090
2023-04-02T03:43:44.976Z,51.156132
2023-04-02T05:26:28.738Z,51.156006
2023-04-02T05:46:07.454Z,51.155926
2023-04-02T05:47:07.600Z,51.155933
2023-04-02T05:48:07.474Z,51.156086
2023-04-02T05:49:07.397Z,51.156132
2023-04-02T05:50:13.194Z,51.156113
2023-04-02T05:51:07.648Z,51.156059
2023-04-02T05:52:07.429Z,51.156067
2023-04-02T05:53:07.370Z,51.156132
2023-04-02T06:00:13.470Z,51.155933
2023-04-02T06:01:13.110Z,51.156075
2023-04-02T06:02:13.329Z,51.156101
2023-04-02T06:08:26.917Z,51.156120
2023-04-02T06:09:26.913Z,51.156116
2023-04-02T06:10:27.456Z,51.156105
2023-04-02T06:11:27.004Z,51.156105
2023-04-02T06:12:26.960Z,51.156086
2023-04-02T06:13:26.832Z,51.156101
2023-04-02T06:14:26.923Z,51.156124
2023-04-02T06:15:27.140Z,51.156082
2023-04-02T06:16:26.842Z,51.156078
2023-04-02T06:17:26.831Z,51.156078
2023-04-02T06:18:26.856Z,51.156113
2023-04-02T06:41:18.633Z,51.156185
2023-04-02T06:42:18.185Z,51.156178
2023-04-02T06:43:18.758Z,51.156124
2023-04-02T06:44:17.999Z,51.156143
2023-04-02T06:45:18.112Z,51.156139
2023-04-02T06:46:18.135Z,51.156101
2023-04-02T06:47:18.012Z,51.156124
2023-04-02T06:48:18.001Z,51.156113
2023-04-02T06:49:19.379Z,51.156128
2023-04-02T06:50:18.316Z,51.156136
2023-04-02T06:51:17.972Z,51.156128
2023-04-02T06:52:18.052Z,51.156109
2023-04-02T06:53:17.921Z,51.156128
2023-04-02T07:07:39.014Z,51.156216
2023-04-02T07:08:38.989Z,51.156178
2023-04-02T07:09:38.927Z,51.156216
2023-04-02T07:10:39.555Z,51.156235
2023-04-02T07:11:39.122Z,51.156242
2023-04-02T07:12:38.934Z,51.156212
2023-04-02T07:13:41.612Z,51.156216
2023-04-02T07:14:38.922Z,51.156269
2023-04-02T07:15:38.891Z,51.156239
2023-04-02T07:16:38.947Z,51.156223
2023-04-02T07:28:59.711Z,51.156151
2023-04-02T07:29:58.990Z,51.156132
2023-04-02T07:30:59.082Z,51.156128
2023-04-02T07:31:59.023Z,51.156090
2023-04-02T07:32:59.076Z,51.156059
2023-04-02T07:33:59.014Z,51.156147
2023-04-02T07:35:01.762Z,51.156136
2023-04-02T07:35:59.657Z,51.156132
2023-04-02T07:36:58.984Z,51.156113
2023-04-02T07:38:32.261Z,51.156143
2023-04-02T07:39:01.233Z,51.156120
